sensor_id;sensor_type;location;lat;lon;timestamp;P1;durP1;ratioP1;P2;durP2;ratioP2
2123;SDS011;1068;52.460;13.528;2023-07-28T00:00:57;3.13;;;1.60;;
2123;SDS011;1068;52.460;13.528;2023-07-28T00:03:25;1.50;;;1.40;;
2123;SDS011;1068;52.460;13.528;2023-07-28T00:05:52;1.70;;;1.60;;
2123;SDS011;1068;52.460;13.528;2023-07-28T00:08:19;1.60;;;1.50;;
2123;SDS011;1068;52.460;13.528;2023-07-28T00:10:46;6.20;;;2.20;;
2123;SDS011;1068;52.460;13.528;2023-07-28T00:13:13;2.47;;;2.37;;
2123;SDS011;1068;52.460;13.528;2023-07-28T00:15:40;1.80;;;1.70;;
2123;SDS011;1068;52.460;13.528;2023-07-28T00:18:07;2.37;;;2.20;;
2123;SDS011;1068;52.460;13.528;2023-07-28T00:20:35;2.20;;;2.00;;
2123;SDS011;1068;52.460;13.528;2023-07-28T00:23:02;2.20;;;2.10;;
2123;SDS011;1068;52.460;13.528;2023-07-28T00:25:29;2.00;;;1.90;;
2123;SDS011;1068;52.460;13.528;2023-07-28T00:27:56;2.30;;;2.10;;
2123;SDS011;1068;52.460;13.528;2023-07-28T00:30:23;2.10;;;2.00;;
2123;SDS011;1068;52.460;13.528;2023-07-28T00:32:51;2.13;;;2.03;;
2123;SDS011;1068;52.460;13.528;2023-07-28T00:35:18;1.90;;;1.80;;
2123;SDS011;1068;52.460;13.528;2023-07-28T00:37:46;2.37;;;2.20;;
2123;SDS011;1068;52.460;13.528;2023-07-28T00:40:13;2.47;;;2.27;;
2123;SDS011;1068;52.460;13.528;2023-07-28T00:42:40;2.10;;;1.90;;
2123;SDS011;1068;52.460;13.528;2023-07-28T00:45:07;2.03;;;1.83;;
2123;SDS011;1068;52.460;13.528;2023-07-28T00:47:35;2.20;;;2.00;;
2123;SDS011;1068;52.460;13.528;2023-07-28T00:50:02;2.90;;;2.33;;
2123;SDS011;1068;52.460;13.528;2023-07-28T00:52:29;1.90;;;1.80;;
2123;SDS011;1068;52.460;13.528;2023-07-28T00:54:57;2.37;;;1.97;;
2123;SDS011;1068;52.460;13.528;2023-07-28T00:57:24;2.83;;;1.70;;
2123;SDS011;1068;52.460;13.528;2023-07-28T00:59:51;2.23;;;1.47;;
2123;SDS011;1068;52.460;13.528;2023-07-28T01:02:19;2.10;;;2.00;;
2123;SDS011;1068;52.460;13.528;2023-07-28T01:04:46;2.50;;;2.30;;
2123;SDS011;1068;52.460;13.528;2023-07-28T01:07:15;3.73;;;1.60;;
2123;SDS011;1068;52.460;13.528;2023-07-28T01:09:46;1.77;;;1.67;;
2123;SDS011;1068;52.460;13.528;2023-07-28T01:12:15;1.90;;;1.50;;
2123;SDS011;1068;52.460;13.528;2023-07-28T01:14:42;2.07;;;1.60;;
2123;SDS011;1068;52.460;13.528;2023-07-28T01:17:10;2.10;;;1.83;;
2123;SDS011;1068;52.460;13.528;2023-07-28T01:19:37;2.00;;;1.90;;
2123;SDS011;1068;52.460;13.528;2023-07-28T01:22:09;1.70;;;1.60;;
2123;SDS011;1068;52.460;13.528;2023-07-28T01:24:42;2.30;;;2.20;;
2123;SDS011;1068;52.460;13.528;2023-07-28T01:27:16;2.20;;;2.10;;
2123;SDS011;1068;52.460;13.528;2023-07-28T01:29:44;2.00;;;1.50;;
2123;SDS011;1068;52.460;13.528;2023-07-28T01:32:12;1.40;;;1.30;;
2123;SDS011;1068;52.460;13.528;2023-07-28T01:34:39;2.57;;;1.90;;
2123;SDS011;1068;52.460;13.528;2023-07-28T01:37:06;2.03;;;1.87;;
2123;SDS011;1068;52.460;13.528;2023-07-28T01:39:33;2.00;;;1.90;;
2123;SDS011;1068;52.460;13.528;2023-07-28T01:42:00;1.50;;;1.40;;
2123;SDS011;1068;52.460;13.528;2023-07-28T01:44:28;1.77;;;1.60;;
2123;SDS011;1068;52.460;13.528;2023-07-28T01:46:55;1.43;;;1.33;;
2123;SDS011;1068;52.460;13.528;2023-07-28T01:49:22;1.63;;;1.53;;
2123;SDS011;1068;52.460;13.528;2023-07-28T01:51:49;1.50;;;1.40;;
2123;SDS011;1068;52.460;13.528;2023-07-28T01:54:16;3.17;;;1.43;;
2123;SDS011;1068;52.460;13.528;2023-07-28T01:56:43;1.67;;;1.57;;
2123;SDS011;1068;52.460;13.528;2023-07-28T01:59:10;3.33;;;1.50;;
2123;SDS011;1068;52.460;13.528;2023-07-28T02:01:39;2.13;;;1.50;;
2123;SDS011;1068;52.460;13.528;2023-07-28T02:04:06;1.93;;;1.40;;
2123;SDS011;1068;52.460;13.528;2023-07-28T02:06:33;2.50;;;1.73;;
2123;SDS011;1068;52.460;13.528;2023-07-28T02:09:00;1.70;;;1.60;;
2123;SDS011;1068;52.460;13.528;2023-07-28T02:11:27;2.00;;;1.90;;
2123;SDS011;1068;52.460;13.528;2023-07-28T02:13:54;4.40;;;1.93;;
2123;SDS011;1068;52.460;13.528;2023-07-28T02:16:23;2.00;;;1.90;;
2123;SDS011;1068;52.460;13.528;2023-07-28T02:18:53;2.20;;;2.10;;
2123;SDS011;1068;52.460;13.528;2023-07-28T02:21:20;2.00;;;1.90;;
2123;SDS011;1068;52.460;13.528;2023-07-28T02:23:47;2.20;;;2.00;;
2123;SDS011;1068;52.460;13.528;2023-07-28T02:26:15;1.83;;;1.73;;
2123;SDS011;1068;52.460;13.528;2023-07-28T02:28:41;2.90;;;1.80;;
2123;SDS011;1068;52.460;13.528;2023-07-28T02:31:08;2.07;;;1.97;;
2123;SDS011;1068;52.460;13.528;2023-07-28T02:33:35;3.27;;;1.70;;
2123;SDS011;1068;52.460;13.528;2023-07-28T02:36:04;1.70;;;1.60;;
2123;SDS011;1068;52.460;13.528;2023-07-28T02:38:31;2.33;;;2.10;;
2123;SDS011;1068;52.460;13.528;2023-07-28T02:40:58;2.27;;;1.83;;
2123;SDS011;1068;52.460;13.528;2023-07-28T02:43:24;2.40;;;2.20;;
2123;SDS011;1068;52.460;13.528;2023-07-28T02:45:53;2.90;;;2.00;;
2123;SDS011;1068;52.460;13.528;2023-07-28T02:48:20;1.50;;;1.40;;
2123;SDS011;1068;52.460;13.528;2023-07-28T02:50:48;2.17;;;1.90;;
2123;SDS011;1068;52.460;13.528;2023-07-28T02:53:17;2.07;;;1.50;;
2123;SDS011;1068;52.460;13.528;2023-07-28T02:55:44;2.37;;;1.87;;
2123;SDS011;1068;52.460;13.528;2023-07-28T02:58:11;2.33;;;2.10;;
2123;SDS011;1068;52.460;13.528;2023-07-28T03:00:38;2.00;;;1.90;;
2123;SDS011;1068;52.460;13.528;2023-07-28T03:03:05;2.00;;;1.90;;
2123;SDS011;1068;52.460;13.528;2023-07-28T03:05:32;2.13;;;2.03;;
2123;SDS011;1068;52.460;13.528;2023-07-28T03:07:59;2.10;;;2.00;;
2123;SDS011;1068;52.460;13.528;2023-07-28T03:10:27;3.00;;;2.13;;
2123;SDS011;1068;52.460;13.528;2023-07-28T03:12:54;2.00;;;1.70;;
2123;SDS011;1068;52.460;13.528;2023-07-28T03:15:21;2.07;;;1.93;;
2123;SDS011;1068;52.460;13.528;2023-07-28T03:17:49;2.73;;;2.07;;
2123;SDS011;1068;52.460;13.528;2023-07-28T03:20:16;3.83;;;1.77;;
2123;SDS011;1068;52.460;13.528;2023-07-28T03:22:43;2.70;;;2.10;;
2123;SDS011;1068;52.460;13.528;2023-07-28T03:25:10;2.90;;;2.37;;
2123;SDS011;1068;52.460;13.528;2023-07-28T03:27:39;2.13;;;1.90;;
2123;SDS011;1068;52.460;13.528;2023-07-28T03:30:06;2.30;;;2.10;;
2123;SDS011;1068;52.460;13.528;2023-07-28T03:32:35;2.20;;;2.00;;
2123;SDS011;1068;52.460;13.528;2023-07-28T03:35:02;2.30;;;1.63;;
2123;SDS011;1068;52.460;13.528;2023-07-28T03:37:30;4.50;;;2.47;;
2123;SDS011;1068;52.460;13.528;2023-07-28T03:39:57;3.30;;;2.00;;
2123;SDS011;1068;52.460;13.528;2023-07-28T03:42:24;2.67;;;2.43;;
2123;SDS011;1068;52.460;13.528;2023-07-28T03:44:52;2.50;;;2.30;;
2123;SDS011;1068;52.460;13.528;2023-07-28T03:47:19;2.20;;;1.97;;
2123;SDS011;1068;52.460;13.528;2023-07-28T03:49:46;3.00;;;2.30;;
2123;SDS011;1068;52.460;13.528;2023-07-28T03:52:13;2.50;;;2.23;;
2123;SDS011;1068;52.460;13.528;2023-07-28T03:54:40;3.93;;;2.07;;
2123;SDS011;1068;52.460;13.528;2023-07-28T03:57:08;2.93;;;2.20;;
2123;SDS011;1068;52.460;13.528;2023-07-28T03:59:35;4.60;;;2.20;;
2123;SDS011;1068;52.460;13.528;2023-07-28T04:02:03;3.83;;;2.30;;
2123;SDS011;1068;52.460;13.528;2023-07-28T04:04:30;2.53;;;2.37;;
2123;SDS011;1068;52.460;13.528;2023-07-28T04:06:57;2.80;;;2.20;;
2123;SDS011;1068;52.460;13.528;2023-07-28T04:09:24;3.00;;;2.60;;
2123;SDS011;1068;52.460;13.528;2023-07-28T04:11:51;3.10;;;2.70;;
2123;SDS011;1068;52.460;13.528;2023-07-28T04:14:18;2.97;;;2.50;;
2123;SDS011;1068;52.460;13.528;2023-07-28T04:16:45;3.20;;;3.00;;
2123;SDS011;1068;52.460;13.528;2023-07-28T04:19:13;4.60;;;2.60;;
2123;SDS011;1068;52.460;13.528;2023-07-28T04:21:40;7.43;;;3.00;;
2123;SDS011;1068;52.460;13.528;2023-07-28T04:24:07;3.57;;;2.53;;
2123;SDS011;1068;52.460;13.528;2023-07-28T04:26:34;4.43;;;2.87;;
2123;SDS011;1068;52.460;13.528;2023-07-28T04:29:01;2.50;;;2.40;;
2123;SDS011;1068;52.460;13.528;2023-07-28T04:31:28;3.20;;;2.90;;
2123;SDS011;1068;52.460;13.528;2023-07-28T04:33:55;2.90;;;2.70;;
2123;SDS011;1068;52.460;13.528;2023-07-28T04:36:23;4.80;;;3.03;;
2123;SDS011;1068;52.460;13.528;2023-07-28T04:38:50;3.57;;;3.03;;
2123;SDS011;1068;52.460;13.528;2023-07-28T04:41:17;7.00;;;3.13;;
2123;SDS011;1068;52.460;13.528;2023-07-28T04:43:44;2.87;;;2.67;;
2123;SDS011;1068;52.460;13.528;2023-07-28T04:46:11;5.60;;;3.53;;
2123;SDS011;1068;52.460;13.528;2023-07-28T04:48:38;2.90;;;2.70;;
2123;SDS011;1068;52.460;13.528;2023-07-28T04:51:05;3.80;;;3.60;;
2123;SDS011;1068;52.460;13.528;2023-07-28T04:53:33;4.10;;;3.70;;
2123;SDS011;1068;52.460;13.528;2023-07-28T04:56:00;4.10;;;2.87;;
2123;SDS011;1068;52.460;13.528;2023-07-28T04:58:28;4.23;;;3.90;;
2123;SDS011;1068;52.460;13.528;2023-07-28T05:00:55;5.80;;;3.90;;
2123;SDS011;1068;52.460;13.528;2023-07-28T05:03:22;4.40;;;4.00;;
2123;SDS011;1068;52.460;13.528;2023-07-28T05:05:49;4.50;;;4.20;;
2123;SDS011;1068;52.460;13.528;2023-07-28T05:08:16;3.10;;;2.90;;
2123;SDS011;1068;52.460;13.528;2023-07-28T05:10:44;3.50;;;3.30;;
2123;SDS011;1068;52.460;13.528;2023-07-28T05:13:11;3.13;;;2.93;;
2123;SDS011;1068;52.460;13.528;2023-07-28T05:15:38;3.80;;;3.60;;
2123;SDS011;1068;52.460;13.528;2023-07-28T05:18:05;4.73;;;3.50;;
2123;SDS011;1068;52.460;13.528;2023-07-28T05:20:32;3.20;;;3.00;;
2123;SDS011;1068;52.460;13.528;2023-07-28T05:22:59;4.33;;;4.00;;
2123;SDS011;1068;52.460;13.528;2023-07-28T05:25:26;4.30;;;3.47;;
2123;SDS011;1068;52.460;13.528;2023-07-28T05:27:54;3.50;;;3.20;;
2123;SDS011;1068;52.460;13.528;2023-07-28T05:30:21;4.67;;;3.40;;
2123;SDS011;1068;52.460;13.528;2023-07-28T05:32:48;3.37;;;3.10;;
2123;SDS011;1068;52.460;13.528;2023-07-28T05:35:15;3.43;;;3.00;;
2123;SDS011;1068;52.460;13.528;2023-07-28T05:37:42;3.30;;;3.00;;
2123;SDS011;1068;52.460;13.528;2023-07-28T05:40:10;2.63;;;2.50;;
2123;SDS011;1068;52.460;13.528;2023-07-28T05:42:37;3.27;;;3.07;;
2123;SDS011;1068;52.460;13.528;2023-07-28T05:45:06;3.60;;;2.80;;
2123;SDS011;1068;52.460;13.528;2023-07-28T05:47:33;5.73;;;2.97;;
2123;SDS011;1068;52.460;13.528;2023-07-28T05:50:00;5.07;;;3.30;;
2123;SDS011;1068;52.460;13.528;2023-07-28T05:52:27;3.10;;;2.90;;
2123;SDS011;1068;52.460;13.528;2023-07-28T05:54:54;2.80;;;2.60;;
2123;SDS011;1068;52.460;13.528;2023-07-28T05:57:21;2.50;;;2.37;;
2123;SDS011;1068;52.460;13.528;2023-07-28T05:59:48;5.03;;;3.10;;
2123;SDS011;1068;52.460;13.528;2023-07-28T06:02:16;5.10;;;3.33;;
2123;SDS011;1068;52.460;13.528;2023-07-28T06:04:43;2.80;;;2.60;;
2123;SDS011;1068;52.460;13.528;2023-07-28T06:07:10;3.97;;;3.67;;
2123;SDS011;1068;52.460;13.528;2023-07-28T06:09:37;4.43;;;3.07;;
2123;SDS011;1068;52.460;13.528;2023-07-28T06:12:04;3.00;;;2.80;;
2123;SDS011;1068;52.460;13.528;2023-07-28T06:14:31;3.73;;;3.53;;
2123;SDS011;1068;52.460;13.528;2023-07-28T06:16:58;3.13;;;2.43;;
2123;SDS011;1068;52.460;13.528;2023-07-28T06:19:27;3.70;;;3.00;;
2123;SDS011;1068;52.460;13.528;2023-07-28T06:21:54;3.50;;;2.60;;
2123;SDS011;1068;52.460;13.528;2023-07-28T06:24:20;4.37;;;2.90;;
2123;SDS011;1068;52.460;13.528;2023-07-28T06:26:47;2.67;;;2.40;;
2123;SDS011;1068;52.460;13.528;2023-07-28T06:29:15;3.27;;;2.97;;
2123;SDS011;1068;52.460;13.528;2023-07-28T06:31:42;2.20;;;2.10;;
2123;SDS011;1068;52.460;13.528;2023-07-28T06:34:09;2.60;;;2.40;;
2123;SDS011;1068;52.460;13.528;2023-07-28T06:36:37;4.40;;;3.10;;
2123;SDS011;1068;52.460;13.528;2023-07-28T06:39:04;6.30;;;2.47;;
2123;SDS011;1068;52.460;13.528;2023-07-28T06:41:31;4.00;;;2.40;;
2123;SDS011;1068;52.460;13.528;2023-07-28T06:43:58;2.37;;;2.27;;
2123;SDS011;1068;52.460;13.528;2023-07-28T06:46:27;3.67;;;3.47;;
2123;SDS011;1068;52.460;13.528;2023-07-28T06:48:54;2.80;;;2.70;;
2123;SDS011;1068;52.460;13.528;2023-07-28T06:51:21;2.50;;;2.30;;
2123;SDS011;1068;52.460;13.528;2023-07-28T06:53:49;2.70;;;2.50;;
2123;SDS011;1068;52.460;13.528;2023-07-28T06:56:16;5.30;;;3.07;;
2123;SDS011;1068;52.460;13.528;2023-07-28T06:58:43;2.63;;;2.43;;
2123;SDS011;1068;52.460;13.528;2023-07-28T07:01:10;2.83;;;2.63;;
2123;SDS011;1068;52.460;13.528;2023-07-28T07:03:37;3.07;;;2.87;;
2123;SDS011;1068;52.460;13.528;2023-07-28T07:06:04;3.40;;;3.20;;
2123;SDS011;1068;52.460;13.528;2023-07-28T07:08:31;2.53;;;2.37;;
2123;SDS011;1068;52.460;13.528;2023-07-28T07:11:00;2.40;;;2.30;;
2123;SDS011;1068;52.460;13.528;2023-07-28T07:13:27;2.70;;;2.50;;
2123;SDS011;1068;52.460;13.528;2023-07-28T07:15:53;3.10;;;2.30;;
2123;SDS011;1068;52.460;13.528;2023-07-28T07:18:21;2.50;;;2.00;;
2123;SDS011;1068;52.460;13.528;2023-07-28T07:20:48;1.90;;;1.80;;
2123;SDS011;1068;52.460;13.528;2023-07-28T07:23:15;2.03;;;1.93;;
2123;SDS011;1068;52.460;13.528;2023-07-28T07:25:42;2.37;;;2.27;;
2123;SDS011;1068;52.460;13.528;2023-07-28T07:28:11;2.40;;;2.20;;
2123;SDS011;1068;52.460;13.528;2023-07-28T07:30:37;3.23;;;2.20;;
2123;SDS011;1068;52.460;13.528;2023-07-28T07:33:05;2.00;;;1.87;;
2123;SDS011;1068;52.460;13.528;2023-07-28T07:35:35;2.13;;;2.03;;
2123;SDS011;1068;52.460;13.528;2023-07-28T07:38:02;1.87;;;1.77;;
2123;SDS011;1068;52.460;13.528;2023-07-28T07:40:29;2.33;;;2.13;;
2123;SDS011;1068;52.460;13.528;2023-07-28T07:42:56;1.83;;;1.73;;
2123;SDS011;1068;52.460;13.528;2023-07-28T07:45:24;3.77;;;2.10;;
2123;SDS011;1068;52.460;13.528;2023-07-28T07:47:51;2.33;;;1.40;;
2123;SDS011;1068;52.460;13.528;2023-07-28T07:50:18;1.83;;;1.73;;
2123;SDS011;1068;52.460;13.528;2023-07-28T07:52:46;1.80;;;1.70;;
2123;SDS011;1068;52.460;13.528;2023-07-28T07:55:14;1.83;;;1.73;;
2123;SDS011;1068;52.460;13.528;2023-07-28T07:57:41;1.70;;;1.60;;
2123;SDS011;1068;52.460;13.528;2023-07-28T08:00:08;5.20;;;1.83;;
2123;SDS011;1068;52.460;13.528;2023-07-28T08:02:37;2.17;;;1.83;;
2123;SDS011;1068;52.460;13.528;2023-07-28T08:05:04;1.50;;;1.40;;
2123;SDS011;1068;52.460;13.528;2023-07-28T08:07:32;1.60;;;1.50;;
2123;SDS011;1068;52.460;13.528;2023-07-28T08:09:59;1.80;;;1.70;;
2123;SDS011;1068;52.460;13.528;2023-07-28T08:12:27;1.80;;;1.60;;
2123;SDS011;1068;52.460;13.528;2023-07-28T08:14:53;1.60;;;1.50;;
2123;SDS011;1068;52.460;13.528;2023-07-28T08:17:20;2.60;;;2.03;;
2123;SDS011;1068;52.460;13.528;2023-07-28T08:19:49;1.43;;;1.33;;
2123;SDS011;1068;52.460;13.528;2023-07-28T08:22:16;1.60;;;1.50;;
2123;SDS011;1068;52.460;13.528;2023-07-28T08:24:43;1.60;;;1.50;;
2123;SDS011;1068;52.460;13.528;2023-07-28T08:27:10;1.73;;;1.63;;
2123;SDS011;1068;52.460;13.528;2023-07-28T08:29:37;3.37;;;1.40;;
2123;SDS011;1068;52.460;13.528;2023-07-28T08:32:04;1.27;;;1.20;;
2123;SDS011;1068;52.460;13.528;2023-07-28T08:34:31;1.37;;;1.27;;
2123;SDS011;1068;52.460;13.528;2023-07-28T08:36:59;1.87;;;1.53;;
2123;SDS011;1068;52.460;13.528;2023-07-28T08:39:26;1.67;;;1.50;;
2123;SDS011;1068;52.460;13.528;2023-07-28T08:41:59;1.50;;;1.40;;
2123;SDS011;1068;52.460;13.528;2023-07-28T08:44:27;4.03;;;1.73;;
2123;SDS011;1068;52.460;13.528;2023-07-28T08:46:54;1.50;;;1.40;;
2123;SDS011;1068;52.460;13.528;2023-07-28T08:49:21;1.50;;;1.40;;
2123;SDS011;1068;52.460;13.528;2023-07-28T08:51:48;1.63;;;1.23;;
2123;SDS011;1068;52.460;13.528;2023-07-28T08:54:17;4.80;;;1.50;;
2123;SDS011;1068;52.460;13.528;2023-07-28T08:56:44;1.27;;;1.17;;
2123;SDS011;1068;52.460;13.528;2023-07-28T08:59:10;1.87;;;1.30;;
2123;SDS011;1068;52.460;13.528;2023-07-28T09:01:38;1.30;;;1.20;;
2123;SDS011;1068;52.460;13.528;2023-07-28T09:04:09;1.40;;;1.30;;
2123;SDS011;1068;52.460;13.528;2023-07-28T09:06:36;3.73;;;1.23;;
2123;SDS011;1068;52.460;13.528;2023-07-28T09:09:05;1.00;;;0.90;;
2123;SDS011;1068;52.460;13.528;2023-07-28T09:11:34;1.30;;;1.20;;
2123;SDS011;1068;52.460;13.528;2023-07-28T09:14:11;1.00;;;1.00;;
2123;SDS011;1068;52.460;13.528;2023-07-28T09:16:38;3.50;;;1.27;;
2123;SDS011;1068;52.460;13.528;2023-07-28T09:19:05;1.40;;;1.30;;
2123;SDS011;1068;52.460;13.528;2023-07-28T09:21:33;1.30;;;1.20;;
2123;SDS011;1068;52.460;13.528;2023-07-28T09:24:00;4.97;;;1.40;;
2123;SDS011;1068;52.460;13.528;2023-07-28T09:26:37;4.27;;;1.40;;
2123;SDS011;1068;52.460;13.528;2023-07-28T09:29:10;1.00;;;1.00;;
2123;SDS011;1068;52.460;13.528;2023-07-28T09:31:37;4.50;;;4.20;;
2123;SDS011;1068;52.460;13.528;2023-07-28T09:34:06;1.00;;;0.90;;
2123;SDS011;1068;52.460;13.528;2023-07-28T09:36:33;0.93;;;0.90;;
2123;SDS011;1068;52.460;13.528;2023-07-28T09:39:01;0.90;;;0.90;;
2123;SDS011;1068;52.460;13.528;2023-07-28T09:41:29;0.83;;;0.83;;
2123;SDS011;1068;52.460;13.528;2023-07-28T09:43:57;1.50;;;0.97;;
2123;SDS011;1068;52.460;13.528;2023-07-28T09:46:24;2.33;;;1.80;;
2123;SDS011;1068;52.460;13.528;2023-07-28T09:48:53;1.30;;;1.17;;
2123;SDS011;1068;52.460;13.528;2023-07-28T09:51:22;1.13;;;1.03;;
2123;SDS011;1068;52.460;13.528;2023-07-28T09:53:52;1.43;;;1.20;;
2123;SDS011;1068;52.460;13.528;2023-07-28T09:56:20;1.73;;;1.63;;
2123;SDS011;1068;52.460;13.528;2023-07-28T09:58:49;1.60;;;1.50;;
2123;SDS011;1068;52.460;13.528;2023-07-28T10:01:18;1.43;;;1.33;;
2123;SDS011;1068;52.460;13.528;2023-07-28T10:03:46;1.60;;;1.23;;
2123;SDS011;1068;52.460;13.528;2023-07-28T10:06:13;1.80;;;1.70;;
2123;SDS011;1068;52.460;13.528;2023-07-28T10:08:41;2.37;;;1.50;;
2123;SDS011;1068;52.460;13.528;2023-07-28T10:11:09;1.30;;;1.20;;
2123;SDS011;1068;52.460;13.528;2023-07-28T10:13:40;1.50;;;1.40;;
2123;SDS011;1068;52.460;13.528;2023-07-28T10:16:07;1.83;;;1.73;;
2123;SDS011;1068;52.460;13.528;2023-07-28T10:18:36;2.07;;;1.30;;
2123;SDS011;1068;52.460;13.528;2023-07-28T10:21:04;1.33;;;1.27;;
2123;SDS011;1068;52.460;13.528;2023-07-28T10:23:33;1.70;;;1.60;;
2123;SDS011;1068;52.460;13.528;2023-07-28T10:26:00;1.40;;;1.30;;
2123;SDS011;1068;52.460;13.528;2023-07-28T10:28:31;1.33;;;1.17;;
2123;SDS011;1068;52.460;13.528;2023-07-28T10:31:00;1.77;;;1.67;;
2123;SDS011;1068;52.460;13.528;2023-07-28T10:33:30;3.77;;;1.30;;
2123;SDS011;1068;52.460;13.528;2023-07-28T10:35:59;1.47;;;1.37;;
2123;SDS011;1068;52.460;13.528;2023-07-28T10:38:30;1.60;;;1.50;;
2123;SDS011;1068;52.460;13.528;2023-07-28T10:41:11;1.53;;;1.43;;
2123;SDS011;1068;52.460;13.528;2023-07-28T10:43:38;1.57;;;1.47;;
2123;SDS011;1068;52.460;13.528;2023-07-28T10:46:05;1.67;;;1.40;;
2123;SDS011;1068;52.460;13.528;2023-07-28T10:48:34;1.30;;;1.20;;
2123;SDS011;1068;52.460;13.528;2023-07-28T10:51:03;3.83;;;1.40;;
2123;SDS011;1068;52.460;13.528;2023-07-28T10:53:31;1.70;;;1.60;;
2123;SDS011;1068;52.460;13.528;2023-07-28T10:55:59;1.90;;;1.80;;
2123;SDS011;1068;52.460;13.528;2023-07-28T10:58:27;1.60;;;1.50;;
2123;SDS011;1068;52.460;13.528;2023-07-28T11:00:54;2.70;;;1.67;;
2123;SDS011;1068;52.460;13.528;2023-07-28T11:03:22;1.47;;;1.37;;
2123;SDS011;1068;52.460;13.528;2023-07-28T11:05:49;8.83;;;2.20;;
2123;SDS011;1068;52.460;13.528;2023-07-28T11:08:17;2.33;;;2.23;;
2123;SDS011;1068;52.460;13.528;2023-07-28T11:10:44;1.53;;;1.43;;
2123;SDS011;1068;52.460;13.528;2023-07-28T11:13:12;2.80;;;1.60;;
2123;SDS011;1068;52.460;13.528;2023-07-28T11:15:40;1.77;;;1.67;;
2123;SDS011;1068;52.460;13.528;2023-07-28T11:18:07;2.10;;;1.90;;
2123;SDS011;1068;52.460;13.528;2023-07-28T11:20:34;3.33;;;1.60;;
2123;SDS011;1068;52.460;13.528;2023-07-28T11:23:02;1.70;;;1.60;;
2123;SDS011;1068;52.460;13.528;2023-07-28T11:25:31;1.97;;;1.87;;
2123;SDS011;1068;52.460;13.528;2023-07-28T11:28:00;1.63;;;1.53;;
2123;SDS011;1068;52.460;13.528;2023-07-28T11:30:28;1.43;;;1.33;;
2123;SDS011;1068;52.460;13.528;2023-07-28T11:32:55;1.70;;;1.47;;
2123;SDS011;1068;52.460;13.528;2023-07-28T11:35:22;1.37;;;1.27;;
2123;SDS011;1068;52.460;13.528;2023-07-28T11:37:49;1.77;;;1.67;;
2123;SDS011;1068;52.460;13.528;2023-07-28T11:40:17;1.97;;;1.87;;
2123;SDS011;1068;52.460;13.528;2023-07-28T11:42:46;1.33;;;1.10;;
2123;SDS011;1068;52.460;13.528;2023-07-28T11:45:14;2.50;;;0.90;;
2123;SDS011;1068;52.460;13.528;2023-07-28T11:47:50;1.97;;;0.90;;
2123;SDS011;1068;52.460;13.528;2023-07-28T11:50:21;1.20;;;0.80;;
2123;SDS011;1068;52.460;13.528;2023-07-28T11:52:48;1.10;;;1.00;;
2123;SDS011;1068;52.460;13.528;2023-07-28T11:55:15;1.10;;;1.00;;
2123;SDS011;1068;52.460;13.528;2023-07-28T11:57:43;1.37;;;1.20;;
2123;SDS011;1068;52.460;13.528;2023-07-28T12:00:12;1.60;;;1.20;;
2123;SDS011;1068;52.460;13.528;2023-07-28T12:02:41;1.40;;;1.30;;
2123;SDS011;1068;52.460;13.528;2023-07-28T12:05:11;1.83;;;1.23;;
2123;SDS011;1068;52.460;13.528;2023-07-28T12:07:39;1.93;;;1.40;;
2123;SDS011;1068;52.460;13.528;2023-07-28T12:10:07;1.60;;;1.50;;
2123;SDS011;1068;52.460;13.528;2023-07-28T12:12:39;1.33;;;1.20;;
2123;SDS011;1068;52.460;13.528;2023-07-28T12:15:19;1.47;;;1.37;;
2123;SDS011;1068;52.460;13.528;2023-07-28T12:18:00;1.30;;;1.20;;
2123;SDS011;1068;52.460;13.528;2023-07-28T12:20:32;1.40;;;1.30;;
2123;SDS011;1068;52.460;13.528;2023-07-28T12:22:59;1.37;;;1.27;;
2123;SDS011;1068;52.460;13.528;2023-07-28T12:25:26;1.40;;;1.10;;
2123;SDS011;1068;52.460;13.528;2023-07-28T12:27:54;1.37;;;1.13;;
2123;SDS011;1068;52.460;13.528;2023-07-28T12:30:22;1.30;;;1.20;;
2123;SDS011;1068;52.460;13.528;2023-07-28T12:32:49;1.60;;;1.50;;
2123;SDS011;1068;52.460;13.528;2023-07-28T12:35:16;1.87;;;1.40;;
2123;SDS011;1068;52.460;13.528;2023-07-28T12:37:43;1.53;;;1.43;;
2123;SDS011;1068;52.460;13.528;2023-07-28T12:40:11;1.57;;;1.47;;
2123;SDS011;1068;52.460;13.528;2023-07-28T12:42:38;1.43;;;1.33;;
2123;SDS011;1068;52.460;13.528;2023-07-28T12:45:06;1.90;;;1.80;;
2123;SDS011;1068;52.460;13.528;2023-07-28T12:47:34;1.60;;;1.27;;
2123;SDS011;1068;52.460;13.528;2023-07-28T12:50:01;1.40;;;1.17;;
2123;SDS011;1068;52.460;13.528;2023-07-28T12:52:29;1.20;;;1.10;;
2123;SDS011;1068;52.460;13.528;2023-07-28T12:54:56;2.27;;;1.10;;
2123;SDS011;1068;52.460;13.528;2023-07-28T12:57:23;1.23;;;1.13;;
2123;SDS011;1068;52.460;13.528;2023-07-28T12:59:50;1.40;;;1.30;;
2123;SDS011;1068;52.460;13.528;2023-07-28T13:02:17;3.80;;;1.40;;
2123;SDS011;1068;52.460;13.528;2023-07-28T13:04:45;2.00;;;1.30;;
2123;SDS011;1068;52.460;13.528;2023-07-28T13:07:12;1.77;;;1.67;;
2123;SDS011;1068;52.460;13.528;2023-07-28T13:09:40;2.10;;;1.30;;
2123;SDS011;1068;52.460;13.528;2023-07-28T13:12:07;1.30;;;1.20;;
2123;SDS011;1068;52.460;13.528;2023-07-28T13:14:34;1.30;;;1.20;;
2123;SDS011;1068;52.460;13.528;2023-07-28T13:17:01;1.37;;;1.27;;
2123;SDS011;1068;52.460;13.528;2023-07-28T13:19:28;1.60;;;1.50;;
2123;SDS011;1068;52.460;13.528;2023-07-28T13:21:57;1.77;;;1.57;;
2123;SDS011;1068;52.460;13.528;2023-07-28T13:24:24;1.60;;;1.50;;
2123;SDS011;1068;52.460;13.528;2023-07-28T13:26:51;4.10;;;1.40;;
2123;SDS011;1068;52.460;13.528;2023-07-28T13:29:18;1.53;;;1.37;;
2123;SDS011;1068;52.460;13.528;2023-07-28T13:31:44;1.80;;;1.70;;
2123;SDS011;1068;52.460;13.528;2023-07-28T13:34:11;1.70;;;1.60;;
2123;SDS011;1068;52.460;13.528;2023-07-28T13:36:38;2.10;;;1.37;;
2123;SDS011;1068;52.460;13.528;2023-07-28T13:39:07;1.40;;;1.30;;
2123;SDS011;1068;52.460;13.528;2023-07-28T13:41:33;1.90;;;1.43;;
2123;SDS011;1068;52.460;13.528;2023-07-28T13:44:00;1.70;;;1.60;;
2123;SDS011;1068;52.460;13.528;2023-07-28T13:46:27;1.70;;;1.60;;
2123;SDS011;1068;52.460;13.528;2023-07-28T13:48:54;1.80;;;1.50;;
2123;SDS011;1068;52.460;13.528;2023-07-28T13:51:21;1.60;;;1.50;;
2123;SDS011;1068;52.460;13.528;2023-07-28T13:53:48;1.80;;;1.70;;
2123;SDS011;1068;52.460;13.528;2023-07-28T13:56:16;1.60;;;1.50;;
2123;SDS011;1068;52.460;13.528;2023-07-28T13:58:43;1.57;;;1.47;;
2123;SDS011;1068;52.460;13.528;2023-07-28T14:01:10;1.63;;;1.53;;
2123;SDS011;1068;52.460;13.528;2023-07-28T14:03:37;1.57;;;1.47;;
2123;SDS011;1068;52.460;13.528;2023-07-28T14:06:04;2.13;;;2.03;;
2123;SDS011;1068;52.460;13.528;2023-07-28T14:08:31;1.63;;;1.53;;
2123;SDS011;1068;52.460;13.528;2023-07-28T14:10:58;1.67;;;1.57;;
2123;SDS011;1068;52.460;13.528;2023-07-28T14:13:26;2.13;;;2.03;;
2123;SDS011;1068;52.460;13.528;2023-07-28T14:15:53;1.47;;;1.37;;
2123;SDS011;1068;52.460;13.528;2023-07-28T14:18:20;1.30;;;1.20;;
2123;SDS011;1068;52.460;13.528;2023-07-28T14:20:47;1.50;;;1.40;;
2123;SDS011;1068;52.460;13.528;2023-07-28T14:23:20;1.00;;;1.00;;
2123;SDS011;1068;52.460;13.528;2023-07-28T14:25:48;1.67;;;1.50;;
2123;SDS011;1068;52.460;13.528;2023-07-28T14:28:15;1.40;;;1.30;;
2123;SDS011;1068;52.460;13.528;2023-07-28T14:30:43;1.43;;;1.33;;
2123;SDS011;1068;52.460;13.528;2023-07-28T14:33:11;1.50;;;1.40;;
2123;SDS011;1068;52.460;13.528;2023-07-28T14:35:39;1.20;;;1.10;;
2123;SDS011;1068;52.460;13.528;2023-07-28T14:38:06;1.20;;;1.10;;
2123;SDS011;1068;52.460;13.528;2023-07-28T14:40:32;1.40;;;1.30;;
2123;SDS011;1068;52.460;13.528;2023-07-28T14:42:59;1.73;;;1.20;;
2123;SDS011;1068;52.460;13.528;2023-07-28T14:45:26;1.80;;;1.20;;
2123;SDS011;1068;52.460;13.528;2023-07-28T14:47:55;1.40;;;1.20;;
2123;SDS011;1068;52.460;13.528;2023-07-28T14:50:22;1.40;;;1.30;;
2123;SDS011;1068;52.460;13.528;2023-07-28T14:52:49;1.50;;;1.40;;
2123;SDS011;1068;52.460;13.528;2023-07-28T14:55:16;1.27;;;1.17;;
2123;SDS011;1068;52.460;13.528;2023-07-28T14:57:42;1.30;;;1.20;;
2123;SDS011;1068;52.460;13.528;2023-07-28T15:00:10;1.60;;;1.50;;
2123;SDS011;1068;52.460;13.528;2023-07-28T15:02:37;1.50;;;1.40;;